createdAt,value
2022-11-17T00:01:43.087Z,12.60
2022-11-17T00:04:45.346Z,12.60
2022-11-17T00:07:47.310Z,12.70
2022-11-17T00:10:49.266Z,12.70
2022-11-17T00:13:51.080Z,12.70
2022-11-17T00:16:53.021Z,12.60
2022-11-17T00:19:54.885Z,12.70
2022-11-17T00:22:57.095Z,12.70
2022-11-17T00:25:59.076Z,12.70
2022-11-17T00:29:03.313Z,12.60
2022-11-17T00:32:05.592Z,12.60
2022-11-17T00:35:07.585Z,12.50
2022-11-17T00:38:09.470Z,12.60
2022-11-17T00:41:13.525Z,12.70
2022-11-17T00:44:16.174Z,12.70
2022-11-17T00:47:18.200Z,12.60
2022-11-17T00:50:20.073Z,12.50
2022-11-17T00:53:21.986Z,12.60
2022-11-17T00:56:24.194Z,12.60
2022-11-17T00:59:26.099Z,12.60
2022-11-17T01:02:27.967Z,12.70
2022-11-17T01:05:33.052Z,12.70
2022-11-17T01:08:35.266Z,12.80
2022-11-17T01:11:37.545Z,12.80
2022-11-17T01:14:39.373Z,12.80
2022-11-17T01:17:41.299Z,12.70
2022-11-17T01:20:43.157Z,12.80
2022-11-17T01:23:46.125Z,12.90
2022-11-17T01:26:47.998Z,12.90
2022-11-17T01:29:49.852Z,12.80
2022-11-17T01:32:51.694Z,12.80
2022-11-17T01:35:53.931Z,12.90
2022-11-17T01:38:56.110Z,12.90
2022-11-17T01:42:02.164Z,12.90
2022-11-17T01:45:25.862Z,12.90
2022-11-17T01:48:28.368Z,12.90
2022-11-17T01:51:32.686Z,12.90
2022-11-17T01:54:39.056Z,12.90
2022-11-17T01:58:03.120Z,12.90
2022-11-17T02:01:05.302Z,13.00
2022-11-17T02:04:09.676Z,13.00
2022-11-17T02:07:24.765Z,13.10
2022-11-17T02:10:30.058Z,13.10
2022-11-17T02:13:33.814Z,13.10
2022-11-17T02:16:35.987Z,13.00
2022-11-17T02:19:40.661Z,13.10
2022-11-17T02:22:48.571Z,13.10
2022-11-17T02:26:20.853Z,13.10
2022-11-17T02:29:33.914Z,13.10
2022-11-17T02:33:09.199Z,13.00
2022-11-17T02:36:31.018Z,13.10
2022-11-17T02:40:15.882Z,13.00
2022-11-17T02:43:21.934Z,13.10
2022-11-17T02:46:25.576Z,13.10
2022-11-17T02:49:38.084Z,13.10
2022-11-17T02:52:39.952Z,13.10
2022-11-17T02:55:47.974Z,13.10
2022-11-17T02:58:53.177Z,13.00
2022-11-17T03:01:57.795Z,12.90
2022-11-17T03:05:10.683Z,12.90
2022-11-17T03:08:18.678Z,12.80
2022-11-17T03:11:28.621Z,12.70
2022-11-17T03:14:45.477Z,12.50
2022-11-17T03:17:58.372Z,12.50
2022-11-17T03:21:10.763Z,12.50
2022-11-17T03:24:44.618Z,12.40
2022-11-17T03:27:49.098Z,12.30
2022-11-17T03:30:52.845Z,12.30
2022-11-17T03:33:55.965Z,12.40
2022-11-17T03:37:02.376Z,12.40
2022-11-17T03:40:17.206Z,12.40
2022-11-17T03:43:20.886Z,12.40
2022-11-17T03:46:25.691Z,12.20
2022-11-17T03:49:33.336Z,12.20
2022-11-17T03:52:36.638Z,12.20
2022-11-17T03:55:53.190Z,12.20
2022-11-17T03:59:00.726Z,12.20
2022-11-17T04:02:02.709Z,12.20
2022-11-17T04:05:08.120Z,12.20
2022-11-17T04:08:09.985Z,12.20
2022-11-17T04:11:11.954Z,12.10
2022-11-17T04:14:13.775Z,12.20
2022-11-17T04:17:15.669Z,12.10
2022-11-17T04:20:19.208Z,12.10
2022-11-17T04:23:21.752Z,12.10
2022-11-17T04:26:23.932Z,12.20
2022-11-17T04:29:25.787Z,12.30
2022-11-17T04:32:29.885Z,12.30
2022-11-17T04:35:31.819Z,12.30
2022-11-17T04:38:34.288Z,12.30
2022-11-17T04:41:36.306Z,12.30
2022-11-17T04:44:38.123Z,12.30
2022-11-17T04:47:40.158Z,12.30
2022-11-17T04:50:42.025Z,12.30
2022-11-17T04:53:44.993Z,12.30
2022-11-17T04:56:47.141Z,12.40
2022-11-17T04:59:49.049Z,12.30
2022-11-17T05:02:50.890Z,12.40
2022-11-17T05:05:52.764Z,12.30
2022-11-17T05:08:56.124Z,12.20
2022-11-17T05:11:58.179Z,12.20
2022-11-17T05:15:00.126Z,12.20
2022-11-17T05:18:02.240Z,12.10
2022-11-17T05:21:05.461Z,12.30
2022-11-17T05:24:08.201Z,12.30
2022-11-17T05:27:10.014Z,12.40
2022-11-17T05:30:14.803Z,12.40
2022-11-17T05:33:16.633Z,12.50
2022-11-17T05:36:18.726Z,12.50
2022-11-17T05:39:20.569Z,12.60
2022-11-17T05:42:22.463Z,12.60
2022-11-17T05:45:24.285Z,12.70
2022-11-17T05:48:26.196Z,12.70
2022-11-17T05:51:28.077Z,12.70
2022-11-17T05:54:29.917Z,12.70
2022-11-17T06:00:41.614Z,12.80
2022-11-17T06:03:47.691Z,12.70
2022-11-17T06:06:50.397Z,12.70
2022-11-17T06:09:52.731Z,12.80
2022-11-17T06:12:54.623Z,12.80
2022-11-17T06:15:59.481Z,12.80
2022-11-17T06:19:09.258Z,12.90
2022-11-17T06:22:13.159Z,12.90
2022-11-17T06:25:16.786Z,12.90
2022-11-17T06:28:21.749Z,12.90
2022-11-17T06:31:27.688Z,12.90
2022-11-17T06:34:29.793Z,12.90
2022-11-17T06:37:31.836Z,12.90
2022-11-17T06:40:35.888Z,12.90
2022-11-17T06:43:38.134Z,13.00
2022-11-17T06:46:43.679Z,13.00
2022-11-17T06:49:48.183Z,13.00
2022-11-17T06:52:50.228Z,13.10
2022-11-17T06:55:53.388Z,13.00
2022-11-17T06:58:55.508Z,13.10
2022-11-17T07:01:57.556Z,13.00
2022-11-17T07:04:59.497Z,13.00
2022-11-17T07:08:04.086Z,13.10
2022-11-17T07:11:11.210Z,13.10
2022-11-17T07:14:13.182Z,13.10
2022-11-17T07:17:17.639Z,13.30
2022-11-17T07:20:20.059Z,13.30
2022-11-17T07:23:22.185Z,13.30
2022-11-17T07:26:24.263Z,13.30
2022-11-17T07:29:26.177Z,13.40
2022-11-17T07:32:28.223Z,13.40
2022-11-17T07:35:30.267Z,13.40
2022-11-17T07:38:34.238Z,13.40
2022-11-17T07:41:36.495Z,13.50
2022-11-17T07:44:38.502Z,13.50
2022-11-17T07:47:40.479Z,13.60
2022-11-17T07:50:42.578Z,13.80
2022-11-17T07:53:44.593Z,13.90
2022-11-17T07:56:46.700Z,13.90
2022-11-17T07:59:48.906Z,13.90
2022-11-17T08:02:50.809Z,14.00
2022-11-17T08:05:52.831Z,14.00
2022-11-17T08:08:57.238Z,14.00
2022-11-17T08:11:59.767Z,14.00
2022-11-17T08:15:01.634Z,14.00
2022-11-17T08:18:03.900Z,14.10
2022-11-17T08:21:08.621Z,14.10
2022-11-17T08:24:12.958Z,14.40
2022-11-17T08:27:15.418Z,14.60
2022-11-17T08:30:18.245Z,14.90
2022-11-17T08:33:20.214Z,15.20
2022-11-17T08:36:22.259Z,15.10
2022-11-17T08:39:24.274Z,15.00
2022-11-17T08:42:26.245Z,14.90
2022-11-17T08:45:28.274Z,14.90
2022-11-17T08:48:30.415Z,14.80
2022-11-17T08:51:32.817Z,14.80
2022-11-17T08:54:35.203Z,14.70
2022-11-17T08:57:37.193Z,14.70
2022-11-17T09:00:40.472Z,14.80
2022-11-17T09:03:44.426Z,15.60
2022-11-17T09:06:46.413Z,15.90
2022-11-17T09:09:48.424Z,15.70
2022-11-17T09:12:50.619Z,15.50
2022-11-17T09:15:53.360Z,15.40
2022-11-17T09:18:56.718Z,15.40
2022-11-17T09:21:58.688Z,15.40
2022-11-17T09:25:03.432Z,15.40
2022-11-17T09:28:06.812Z,15.30
2022-11-17T09:31:14.183Z,15.20
2022-11-17T09:34:17.216Z,15.20
2022-11-17T09:37:19.332Z,15.20
2022-11-17T09:40:21.464Z,15.00
2022-11-17T09:43:33.978Z,15.00
2022-11-17T09:46:57.358Z,15.00
2022-11-17T09:50:29.059Z,15.00
2022-11-17T09:53:52.549Z,14.90
2022-11-17T09:56:56.604Z,14.90
2022-11-17T10:00:15.028Z,14.90
2022-11-17T10:03:28.274Z,14.90
2022-11-17T10:06:31.720Z,14.80
2022-11-17T10:09:42.190Z,14.90
2022-11-17T10:12:51.624Z,14.90
2022-11-17T10:16:06.549Z,14.90
2022-11-17T10:19:14.950Z,15.40
2022-11-17T10:22:33.358Z,15.50
2022-11-17T10:25:38.385Z,15.40
2022-11-17T10:28:40.667Z,15.30
2022-11-17T10:31:45.720Z,15.20
2022-11-17T10:34:47.792Z,15.00
2022-11-17T10:37:59.673Z,14.90
2022-11-17T10:41:02.559Z,14.80
2022-11-17T10:44:23.534Z,14.60
2022-11-17T10:47:29.945Z,14.50
2022-11-17T10:50:34.124Z,14.30
2022-11-17T10:53:45.211Z,14.30
2022-11-17T10:56:52.144Z,14.20
2022-11-17T10:59:57.256Z,14.10
2022-11-17T11:03:21.382Z,14.10
2022-11-17T11:06:28.974Z,14.10
2022-11-17T11:09:31.854Z,14.20
2022-11-17T11:12:41.539Z,14.20
2022-11-17T11:15:44.893Z,14.20
2022-11-17T11:18:49.746Z,14.30
2022-11-17T11:21:57.617Z,14.20
2022-11-17T11:25:29.729Z,14.30
2022-11-17T11:28:56.275Z,14.30
2022-11-17T11:32:05.446Z,14.30
2022-11-17T11:35:26.219Z,14.20
2022-11-17T11:38:58.106Z,14.20
2022-11-17T11:42:21.465Z,14.80
2022-11-17T11:45:37.104Z,14.80
2022-11-17T11:48:41.071Z,14.90
2022-11-17T12:03:35.354Z,15.40
2022-11-17T12:07:18.924Z,15.40
2022-11-17T12:10:36.716Z,15.40
2022-11-17T12:13:46.158Z,15.50
2022-11-17T12:16:59.899Z,15.50
2022-11-17T12:20:10.428Z,15.50
2022-11-17T12:23:34.712Z,15.40
2022-11-17T12:26:36.619Z,15.40
2022-11-17T12:29:46.643Z,15.40
2022-11-17T12:32:48.515Z,15.40
2022-11-17T12:36:16.590Z,15.40
2022-11-17T12:39:52.781Z,15.40
2022-11-17T12:43:27.477Z,15.40
2022-11-17T12:46:32.506Z,15.40
2022-11-17T12:49:47.855Z,15.30
2022-11-17T12:53:16.546Z,15.40
2022-11-17T12:56:39.426Z,15.40
2022-11-17T12:59:59.890Z,15.40
2022-11-17T13:03:08.521Z,15.30
2022-11-17T13:09:37.627Z,15.10
2022-11-17T13:12:39.609Z,15.20
2022-11-17T13:15:43.193Z,15.20
2022-11-17T13:18:46.228Z,15.10
2022-11-17T13:21:48.124Z,14.90
2022-11-17T13:24:50.951Z,14.90
2022-11-17T13:27:58.442Z,15.00
2022-11-17T13:31:03.757Z,15.00
2022-11-17T13:34:13.881Z,14.90
2022-11-17T13:37:18.463Z,14.90
2022-11-17T13:40:21.913Z,14.80
2022-11-17T13:43:25.641Z,14.70
2022-11-17T13:46:27.521Z,14.60
2022-11-17T13:49:39.576Z,14.50
2022-11-17T13:52:46.750Z,14.30
2022-11-17T13:55:49.800Z,14.20
2022-11-17T13:58:52.801Z,14.10
2022-11-17T14:02:33.382Z,14.00
2022-11-17T14:05:35.331Z,13.90
2022-11-17T14:08:41.265Z,13.90
2022-11-17T14:11:43.274Z,13.90
2022-11-17T14:14:45.295Z,13.90
2022-11-17T14:18:20.119Z,13.90
2022-11-17T14:21:22.178Z,13.90
2022-11-17T14:24:24.954Z,13.90
2022-11-17T14:27:29.907Z,13.80
2022-11-17T14:30:31.845Z,13.90
2022-11-17T14:33:33.723Z,13.90
2022-11-17T14:36:37.393Z,13.80
2022-11-17T14:39:39.316Z,13.70
2022-11-17T14:42:41.663Z,13.50
2022-11-17T14:45:43.751Z,13.40
2022-11-17T14:48:45.968Z,13.50
2022-11-17T14:51:51.116Z,13.60
2022-11-17T14:54:53.208Z,13.50
2022-11-17T14:57:55.170Z,13.40
2022-11-17T15:00:57.052Z,13.40
2022-11-17T15:04:15.472Z,13.40
2022-11-17T15:07:24.149Z,13.40
2022-11-17T15:10:26.068Z,13.40
2022-11-17T15:13:28.303Z,13.40
2022-11-17T15:16:30.213Z,13.40
2022-11-17T15:19:32.096Z,13.30
2022-11-17T15:22:34.058Z,13.10
2022-11-17T15:25:38.329Z,13.20
2022-11-17T15:28:40.605Z,13.30
2022-11-17T15:31:43.086Z,13.40
2022-11-17T15:34:44.868Z,13.40
2022-11-17T15:37:46.700Z,13.40
2022-11-17T15:40:53.886Z,13.30
2022-11-17T15:43:55.840Z,13.20
2022-11-17T15:50:05.134Z,13.30
2022-11-17T15:53:07.141Z,13.20
2022-11-17T15:56:10.667Z,13.10
2022-11-17T15:59:12.574Z,13.10
2022-11-17T16:02:14.489Z,13.00
2022-11-17T16:05:16.440Z,13.00
2022-11-17T16:08:18.344Z,13.00
2022-11-17T16:11:20.793Z,13.10
2022-11-17T16:14:23.154Z,13.00
2022-11-17T16:17:25.037Z,13.00
2022-11-17T16:20:27.180Z,13.00
2022-11-17T16:23:29.160Z,13.00
2022-11-17T16:26:31.721Z,13.00
2022-11-17T16:29:33.477Z,12.90
2022-11-17T16:32:35.506Z,12.90
2022-11-17T16:35:38.413Z,12.90
2022-11-17T16:38:55.090Z,13.00
2022-11-17T16:42:02.243Z,12.90
2022-11-17T16:45:06.709Z,12.90
2022-11-17T16:48:11.328Z,12.90
2022-11-17T16:51:14.594Z,13.00
2022-11-17T16:54:17.292Z,12.90
2022-11-17T16:57:19.128Z,13.00
2022-11-17T17:00:21.066Z,12.80
2022-11-17T17:03:23.042Z,12.90
2022-11-17T17:06:25.544Z,12.90
2022-11-17T17:09:28.169Z,12.70
2022-11-17T17:12:30.378Z,12.90
2022-11-17T17:15:33.598Z,12.80
2022-11-17T17:18:35.918Z,12.90
2022-11-17T17:21:38.724Z,12.90
2022-11-17T17:24:40.570Z,12.90
2022-11-17T17:27:42.588Z,12.90
2022-11-17T17:30:44.424Z,12.90
2022-11-17T17:33:48.538Z,12.80
2022-11-17T17:36:50.436Z,12.90
2022-11-17T17:39:54.631Z,12.80
2022-11-17T17:42:56.428Z,12.70
2022-11-17T17:46:03.496Z,12.80
2022-11-17T17:49:06.066Z,12.80
2022-11-17T17:52:13.561Z,12.60
2022-11-17T17:55:15.780Z,12.60
2022-11-17T17:58:17.614Z,12.60
2022-11-17T18:01:22.186Z,12.50
2022-11-17T18:04:26.368Z,12.50
2022-11-17T18:07:28.296Z,12.40
2022-11-17T18:10:30.208Z,12.50
2022-11-17T18:13:36.033Z,12.50
2022-11-17T18:16:40.757Z,12.40
2022-11-17T18:19:42.657Z,12.50
2022-11-17T18:22:44.681Z,12.50
2022-11-17T18:25:46.528Z,12.30
2022-11-17T18:29:06.320Z,12.40
2022-11-17T18:32:08.178Z,12.40
2022-11-17T18:35:10.042Z,12.30
2022-11-17T18:38:12.030Z,12.20
2022-11-17T18:41:15.732Z,12.30
2022-11-17T18:44:18.736Z,12.30
2022-11-17T18:47:20.739Z,12.30
2022-11-17T18:50:22.972Z,12.30
2022-11-17T18:53:25.177Z,12.40
2022-11-17T18:56:35.943Z,12.40
2022-11-17T18:59:37.986Z,12.40
2022-11-17T19:02:43.464Z,12.40
2022-11-17T19:06:02.931Z,12.40
2022-11-17T19:09:05.033Z,12.40
2022-11-17T19:12:10.625Z,12.60
2022-11-17T19:15:12.675Z,12.40
2022-11-17T19:18:18.109Z,12.40
2022-11-17T19:21:28.960Z,12.40
2022-11-17T19:24:31.085Z,12.40
2022-11-17T19:27:33.401Z,12.30
2022-11-17T19:30:35.651Z,12.40
2022-11-17T19:33:39.877Z,12.40
2022-11-17T19:36:42.067Z,12.40
2022-11-17T19:39:44.228Z,12.50
2022-11-17T19:42:48.163Z,12.40
2022-11-17T19:48:57.690Z,12.50
2022-11-17T19:51:59.637Z,12.50
2022-11-17T19:55:01.585Z,12.60
2022-11-17T19:58:03.713Z,12.50
2022-11-17T20:01:10.004Z,12.60
2022-11-17T20:04:12.714Z,12.40
2022-11-17T20:07:14.774Z,12.40
2022-11-17T20:10:17.592Z,12.40
2022-11-17T20:13:19.952Z,12.50
2022-11-17T20:16:27.181Z,12.50
2022-11-17T20:19:29.114Z,12.40
2022-11-17T20:22:32.699Z,12.40
2022-11-17T20:25:37.748Z,12.40
2022-11-17T20:28:40.545Z,12.40
2022-11-17T20:31:42.689Z,12.30
2022-11-17T20:34:44.728Z,12.40
2022-11-17T20:37:46.666Z,12.40
2022-11-17T20:40:48.634Z,12.40
2022-11-17T20:43:52.654Z,12.30
2022-11-17T20:46:56.967Z,12.40
2022-11-17T20:49:58.882Z,12.30
2022-11-17T20:53:00.936Z,12.30
2022-11-17T20:56:05.395Z,12.30
2022-11-17T20:59:07.571Z,12.20
2022-11-17T21:02:11.483Z,12.20
2022-11-17T21:05:13.977Z,12.10
2022-11-17T21:08:15.928Z,12.10
2022-11-17T21:11:22.934Z,12.10
2022-11-17T21:14:26.579Z,12.00
2022-11-17T21:17:28.640Z,12.00
2022-11-17T21:20:30.675Z,12.00
2022-11-17T21:23:32.812Z,11.90
2022-11-17T21:26:34.859Z,11.90
2022-11-17T21:29:39.310Z,11.90
2022-11-17T21:32:42.038Z,11.90
2022-11-17T21:35:44.596Z,11.90
2022-11-17T21:38:47.196Z,11.80
2022-11-17T21:41:49.192Z,11.90
2022-11-17T21:44:51.260Z,11.80
2022-11-17T21:47:59.071Z,11.70
2022-11-17T21:51:01.513Z,11.70
2022-11-17T21:54:05.915Z,11.70
2022-11-17T21:57:07.974Z,11.80
2022-11-17T22:00:13.669Z,11.80
2022-11-17T22:03:15.672Z,11.80
2022-11-17T22:06:19.871Z,11.80
2022-11-17T22:09:21.800Z,11.80
2022-11-17T22:12:23.751Z,11.80
2022-11-17T22:15:25.738Z,11.80
2022-11-17T22:18:27.755Z,11.80
2022-11-17T22:21:30.360Z,11.90
2022-11-17T22:24:32.379Z,11.80
2022-11-17T22:27:34.621Z,11.90
2022-11-17T22:30:38.912Z,11.90
2022-11-17T22:33:41.007Z,11.90
2022-11-17T22:36:43.181Z,11.90
2022-11-17T22:39:47.705Z,12.00
2022-11-17T22:42:52.894Z,12.00
2022-11-17T22:45:54.877Z,11.90
2022-11-17T22:48:56.882Z,11.90
2022-11-17T22:51:59.068Z,11.90
2022-11-17T22:55:01.035Z,11.80
2022-11-17T22:58:03.583Z,11.80
2022-11-17T23:01:07.967Z,11.80
2022-11-17T23:04:11.752Z,11.80
2022-11-17T23:07:13.951Z,11.70
2022-11-17T23:10:16.307Z,11.70
2022-11-17T23:13:18.383Z,11.70
2022-11-17T23:16:20.502Z,11.70
2022-11-17T23:19:22.567Z,11.70
2022-11-17T23:22:24.676Z,11.60
2022-11-17T23:25:26.887Z,11.70
2022-11-17T23:28:28.846Z,11.60
2022-11-17T23:31:30.847Z,11.60
2022-11-17T23:34:32.850Z,11.70
2022-11-17T23:37:35.469Z,11.60
2022-11-17T23:40:37.733Z,11.60
2022-11-17T23:43:40.472Z,11.60
2022-11-17T23:46:42.402Z,11.60
2022-11-17T23:49:44.695Z,11.60
2022-11-17T23:52:46.722Z,11.60
2022-11-17T23:55:55.401Z,11.70
2022-11-17T23:58:57.205Z,11.70
